createdAt,value
2022-09-14T00:00:20.965Z,26.96
2022-09-14T00:00:42.600Z,26.96
2022-09-14T00:01:24.377Z,26.96
2022-09-14T00:01:48.818Z,26.96
2022-09-14T00:02:10.663Z,26.96
2022-09-14T00:02:32.619Z,26.94
2022-09-14T00:02:54.907Z,26.95
2022-09-14T00:03:18.014Z,26.96
2022-09-14T00:03:40.794Z,26.94
2022-09-14T00:04:05.639Z,26.95
2022-09-14T00:04:27.696Z,26.94
2022-09-14T00:04:51.281Z,26.92
2022-09-14T00:05:13.923Z,26.92
2022-09-14T00:05:35.953Z,26.94
2022-09-14T00:06:03.660Z,26.93
2022-09-14T00:06:27.025Z,26.90
2022-09-14T00:06:49.137Z,26.92
2022-09-14T00:07:10.944Z,26.91
2022-09-14T00:07:32.501Z,26.91
2022-09-14T00:07:55.079Z,26.94
2022-09-14T00:08:16.717Z,26.94
2022-09-14T00:08:38.662Z,26.94
2022-09-14T00:09:01.681Z,26.95
2022-09-14T00:09:25.989Z,26.97
2022-09-14T00:09:49.216Z,26.98
2022-09-14T00:10:11.047Z,26.97
2022-09-14T00:10:32.792Z,26.97
2022-09-14T00:10:54.425Z,26.98
2022-09-14T00:11:16.977Z,26.97
2022-09-14T00:11:38.797Z,26.96
2022-09-14T00:12:01.974Z,26.98
2022-09-14T00:12:24.977Z,26.97
2022-09-14T00:12:46.547Z,26.97
2022-09-14T00:13:09.929Z,26.99
2022-09-14T00:13:31.600Z,26.98
2022-09-14T00:13:54.272Z,26.95
2022-09-14T00:14:16.801Z,26.96
2022-09-14T00:14:39.404Z,26.93
2022-09-14T00:15:01.036Z,26.91
2022-09-14T00:15:22.643Z,26.92
2022-09-14T00:15:45.046Z,26.92
2022-09-14T00:16:11.416Z,26.94
2022-09-14T00:16:36.689Z,26.92
2022-09-14T00:16:58.384Z,26.91
2022-09-14T00:17:20.977Z,26.88
2022-09-14T00:17:42.645Z,26.86
2022-09-14T00:18:06.761Z,26.86
2022-09-14T00:18:28.998Z,26.85
2022-09-14T00:18:51.426Z,26.84
2022-09-14T00:19:19.158Z,26.85
2022-09-14T00:19:40.817Z,26.82
2022-09-14T00:20:02.694Z,26.81
2022-09-14T00:20:24.332Z,26.83
2022-09-14T00:20:45.924Z,26.83
2022-09-14T00:21:11.037Z,26.83
2022-09-14T00:21:33.516Z,26.84
2022-09-14T00:21:58.120Z,26.83
2022-09-14T00:22:20.894Z,26.83
2022-09-14T00:22:42.489Z,26.87
2022-09-14T00:23:04.901Z,26.84
2022-09-14T00:23:26.527Z,26.83
2022-09-14T00:24:35.859Z,26.88
2022-09-14T00:24:57.492Z,26.87
2022-09-14T00:25:19.129Z,26.83
2022-09-14T00:25:40.753Z,26.64
2022-09-14T00:26:06.132Z,26.72
2022-09-14T00:26:31.026Z,26.80
2022-09-14T00:26:53.765Z,26.76
2022-09-14T00:27:16.722Z,26.79
2022-09-14T00:27:38.304Z,26.79
2022-09-14T00:28:01.276Z,26.78
2022-09-14T00:28:22.874Z,26.76
2022-09-14T00:28:46.911Z,26.74
2022-09-14T00:29:08.573Z,26.65
2022-09-14T00:29:33.309Z,26.77
2022-09-14T00:29:54.933Z,26.65
2022-09-14T00:30:16.857Z,26.76
2022-09-14T00:30:41.527Z,26.78
2022-09-14T00:31:03.930Z,26.77
2022-09-14T00:31:27.017Z,26.78
2022-09-14T00:31:48.700Z,26.75
2022-09-14T00:32:10.408Z,26.78
2022-09-14T00:32:32.353Z,26.78
2022-09-14T00:32:55.949Z,26.75
2022-09-14T00:33:17.755Z,26.78
2022-09-14T00:33:42.242Z,26.79
2022-09-14T00:34:04.783Z,26.76
2022-09-14T00:34:28.597Z,26.73
2022-09-14T00:34:50.320Z,26.76
2022-09-14T00:35:11.943Z,26.75
2022-09-14T00:35:35.567Z,26.76
2022-09-14T00:36:04.569Z,26.73
2022-09-14T00:36:28.662Z,26.77
2022-09-14T00:36:51.613Z,26.78
2022-09-14T00:37:14.130Z,26.80
2022-09-14T00:37:35.712Z,26.73
2022-09-14T00:37:58.289Z,26.82
2022-09-14T00:38:20.120Z,26.76
2022-09-14T00:38:42.458Z,26.79
2022-09-14T00:39:05.313Z,26.77
2022-09-14T00:39:28.991Z,26.79
2022-09-14T00:39:50.807Z,26.77
2022-09-14T00:40:12.725Z,26.78
2022-09-14T00:40:34.405Z,26.79
2022-09-14T00:40:59.050Z,26.79
2022-09-14T00:41:23.913Z,26.76
2022-09-14T00:41:49.329Z,26.76
2022-09-14T00:42:19.361Z,26.71
2022-09-14T00:42:41.942Z,26.69
2022-09-14T00:43:03.921Z,26.68
2022-09-14T00:43:25.596Z,26.68
2022-09-14T00:43:56.165Z,26.69
2022-09-14T00:44:56.480Z,26.71
2022-09-14T00:45:21.415Z,26.68
2022-09-14T00:45:43.094Z,26.67
2022-09-14T00:46:04.781Z,26.66
2022-09-14T00:46:29.548Z,26.67
2022-09-14T00:46:54.484Z,26.67
2022-09-14T00:47:17.221Z,26.69
2022-09-14T00:47:40.865Z,26.64
2022-09-14T00:48:03.441Z,26.67
2022-09-14T00:48:25.752Z,26.64
2022-09-14T00:48:47.476Z,26.63
2022-09-14T00:49:12.978Z,26.59
2022-09-14T00:49:37.888Z,26.51
2022-09-14T00:50:03.886Z,26.60
2022-09-14T00:50:26.032Z,26.62
2022-09-14T00:50:47.932Z,26.63
2022-09-14T00:51:09.572Z,26.63
2022-09-14T00:51:34.587Z,26.62
2022-09-14T00:52:03.778Z,26.70
2022-09-14T00:52:28.285Z,26.67
2022-09-14T00:52:51.694Z,26.71
2022-09-14T00:53:13.402Z,26.68
2022-09-14T00:53:35.024Z,26.69
2022-09-14T00:53:56.904Z,26.72
2022-09-14T00:54:19.168Z,26.70
2022-09-14T00:54:43.325Z,26.63
2022-09-14T00:55:08.993Z,26.68
2022-09-14T00:55:31.579Z,26.61
2022-09-14T00:55:54.988Z,26.73
2022-09-14T00:56:16.802Z,26.71
2022-09-14T00:56:39.281Z,26.66
2022-09-14T00:57:03.649Z,26.67
2022-09-14T00:57:30.356Z,26.60
2022-09-14T00:57:55.313Z,26.62
2022-09-14T00:58:16.920Z,26.64
2022-09-14T00:58:38.828Z,26.64
2022-09-14T00:59:06.965Z,26.63
2022-09-14T00:59:32.620Z,26.60
2022-09-14T00:59:56.717Z,26.67
2022-09-14T01:00:21.004Z,26.56
2022-09-14T01:00:42.912Z,26.62
2022-09-14T01:01:04.775Z,26.63
2022-09-14T01:01:28.297Z,26.62
2022-09-14T01:01:50.761Z,26.64
2022-09-14T01:02:15.725Z,26.59
2022-09-14T01:02:38.351Z,26.64
2022-09-14T01:03:01.818Z,26.64
2022-09-14T01:03:23.458Z,26.65
2022-09-14T01:03:45.173Z,26.65
2022-09-14T01:04:06.992Z,26.67
2022-09-14T01:04:28.824Z,26.68
2022-09-14T01:04:52.118Z,26.65
2022-09-14T01:05:14.697Z,26.65
2022-09-14T01:05:49.585Z,26.61
2022-09-14T01:06:19.254Z,26.64
2022-09-14T01:06:49.977Z,26.62
2022-09-14T01:07:24.874Z,26.68
2022-09-14T01:08:10.849Z,26.68
2022-09-14T01:08:43.945Z,26.71
2022-09-14T01:09:18.096Z,26.70
2022-09-14T01:09:46.040Z,26.73
2022-09-14T01:10:21.805Z,26.67
2022-09-14T01:10:59.813Z,26.70
2022-09-14T01:11:39.771Z,26.70
2022-09-14T01:12:13.885Z,26.72
2022-09-14T01:12:48.155Z,26.68
2022-09-14T01:13:25.849Z,26.68
2022-09-14T01:13:59.759Z,26.69
2022-09-14T01:14:31.637Z,26.70
2022-09-14T01:15:02.583Z,26.63
2022-09-14T01:15:29.113Z,26.61
2022-09-14T01:16:07.788Z,26.70
2022-09-14T01:16:34.319Z,26.68
2022-09-14T01:17:03.789Z,26.68
2022-09-14T01:17:34.908Z,26.69
2022-09-14T01:18:03.056Z,26.69
2022-09-14T01:18:34.006Z,26.72
2022-09-14T01:18:58.155Z,26.70
2022-09-14T01:19:26.092Z,26.68
2022-09-14T01:20:10.875Z,26.70
2022-09-14T01:20:39.648Z,26.71
2022-09-14T01:21:11.258Z,26.67
2022-09-14T01:21:35.553Z,26.71
2022-09-14T01:22:07.809Z,26.74
2022-09-14T01:22:37.374Z,26.73
2022-09-14T01:23:09.987Z,26.75
2022-09-14T01:23:41.271Z,26.72
2022-09-14T01:24:14.457Z,26.75
2022-09-14T01:24:43.510Z,26.71
2022-09-14T01:25:15.085Z,26.67
2022-09-14T01:26:19.110Z,26.72
2022-09-14T01:27:00.291Z,26.65
2022-09-14T01:27:28.816Z,26.60
2022-09-14T01:27:52.848Z,26.64
2022-09-14T01:28:22.998Z,26.45
2022-09-14T01:28:51.704Z,26.46
2022-09-14T01:29:16.583Z,26.65
2022-09-14T01:29:45.680Z,26.67
2022-09-14T01:30:10.414Z,26.47
2022-09-14T01:30:34.599Z,26.43
2022-09-14T01:30:58.714Z,26.68
2022-09-14T01:31:28.500Z,26.70
2022-09-14T01:31:56.729Z,26.69
2022-09-14T01:32:22.581Z,26.52
2022-09-14T01:32:52.262Z,26.67
2022-09-14T01:33:17.935Z,26.72
2022-09-14T01:33:44.277Z,26.53
2022-09-14T01:34:12.941Z,26.63
2022-09-14T01:34:40.668Z,26.74
2022-09-14T01:35:15.687Z,26.76
2022-09-14T01:35:42.497Z,26.74
2022-09-14T01:36:08.929Z,26.53
2022-09-14T01:36:34.633Z,26.57
2022-09-14T01:37:01.881Z,26.75
2022-09-14T01:37:28.708Z,26.76
2022-09-14T01:37:54.941Z,26.70
2022-09-14T01:38:22.104Z,26.75
2022-09-14T01:38:48.050Z,26.74
2022-09-14T01:39:11.117Z,26.74
2022-09-14T01:39:35.504Z,26.62
2022-09-14T01:40:01.273Z,26.73
2022-09-14T01:40:29.230Z,26.74
2022-09-14T01:40:52.292Z,26.75
2022-09-14T01:41:20.351Z,26.74
2022-09-14T01:41:42.637Z,26.71
2022-09-14T01:42:06.924Z,26.70
2022-09-14T01:42:32.533Z,26.68
2022-09-14T01:42:58.789Z,26.67
2022-09-14T01:43:25.046Z,26.64
2022-09-14T01:43:50.234Z,26.63
2022-09-14T01:44:18.169Z,26.59
2022-09-14T01:44:44.488Z,26.65
2022-09-14T01:45:10.921Z,26.66
2022-09-14T01:45:34.697Z,26.68
2022-09-14T01:46:01.115Z,26.69
2022-09-14T01:46:26.404Z,26.68
2022-09-14T01:46:53.161Z,26.64
2022-09-14T01:47:17.700Z,26.67
2022-09-14T01:47:49.039Z,26.67
2022-09-14T01:48:14.468Z,26.65
2022-09-14T01:48:39.933Z,26.59
2022-09-14T01:49:07.763Z,26.49
2022-09-14T01:49:35.569Z,26.65
2022-09-14T01:50:02.547Z,26.43
2022-09-14T01:50:28.402Z,26.57
2022-09-14T01:50:55.516Z,26.55
2022-09-14T01:51:23.002Z,26.43
2022-09-14T01:51:46.897Z,26.68
2022-09-14T01:52:17.162Z,26.58
2022-09-14T01:52:43.441Z,26.58
2022-09-14T01:53:09.637Z,26.60
2022-09-14T01:53:37.721Z,26.57
2022-09-14T01:54:07.726Z,26.65
2022-09-14T01:54:34.715Z,26.65
2022-09-14T01:55:01.459Z,26.46
2022-09-14T01:55:28.183Z,26.35
2022-09-14T01:55:56.268Z,26.70
2022-09-14T01:56:23.063Z,26.68
2022-09-14T01:56:50.024Z,26.73
2022-09-14T01:57:18.569Z,26.46
2022-09-14T01:57:46.278Z,26.74
2022-09-14T01:58:12.256Z,26.71
2022-09-14T01:58:40.330Z,26.75
2022-09-14T01:59:08.371Z,26.76
2022-09-14T01:59:37.282Z,26.74
2022-09-14T02:00:03.061Z,26.65
2022-09-14T02:00:28.528Z,26.64
2022-09-14T02:00:53.870Z,26.73
2022-09-14T02:01:19.094Z,26.74
2022-09-14T02:01:50.644Z,26.75
2022-09-14T02:02:19.627Z,26.73
2022-09-14T02:02:46.714Z,26.72
2022-09-14T02:03:13.756Z,26.75
2022-09-14T02:03:40.207Z,26.73
2022-09-14T02:04:07.404Z,26.62
2022-09-14T02:04:36.341Z,26.60
2022-09-14T02:05:03.269Z,26.63
2022-09-14T02:05:29.707Z,26.66
2022-09-14T02:06:00.493Z,26.68
2022-09-14T02:06:28.371Z,26.68
2022-09-14T02:06:51.426Z,26.69
2022-09-14T02:07:13.955Z,26.69
2022-09-14T02:07:37.586Z,26.63
2022-09-14T02:08:00.699Z,26.64
2022-09-14T02:08:22.881Z,26.69
2022-09-14T02:08:44.591Z,26.68
2022-09-14T02:09:09.174Z,26.69
2022-09-14T02:09:31.890Z,26.60
2022-09-14T02:09:55.277Z,26.64
2022-09-14T02:10:17.505Z,26.54
2022-09-14T02:10:39.280Z,26.68
2022-09-14T02:11:04.015Z,26.66
2022-09-14T02:11:25.660Z,26.64
2022-09-14T02:11:47.419Z,26.62
2022-09-14T02:12:09.112Z,26.61
2022-09-14T02:12:31.278Z,26.61
2022-09-14T02:12:56.678Z,26.61
2022-09-14T02:13:18.341Z,26.60
2022-09-14T02:13:40.067Z,26.58
2022-09-14T02:14:02.232Z,26.62
2022-09-14T02:14:23.925Z,26.64
2022-09-14T02:14:47.837Z,26.65
2022-09-14T02:15:12.724Z,26.64
2022-09-14T02:15:35.847Z,26.64
2022-09-14T02:15:57.569Z,26.56
2022-09-14T02:16:22.051Z,26.61
2022-09-14T02:16:46.225Z,26.58
2022-09-14T02:17:09.152Z,26.58
2022-09-14T02:17:32.212Z,26.53
2022-09-14T02:17:54.415Z,26.58
2022-09-14T02:18:16.812Z,26.58
2022-09-14T02:18:40.056Z,26.55
2022-09-14T02:19:01.971Z,26.45
2022-09-14T02:19:25.288Z,26.56
2022-09-14T02:19:51.815Z,26.55
2022-09-14T02:20:21.763Z,26.50
2022-09-14T02:20:48.432Z,26.53
2022-09-14T02:21:14.663Z,26.48
2022-09-14T02:21:37.717Z,26.56
2022-09-14T02:21:59.778Z,26.58
2022-09-14T02:22:22.514Z,26.58
2022-09-14T02:22:44.540Z,26.58
2022-09-14T02:23:06.877Z,26.56
2022-09-14T02:23:28.823Z,26.56
2022-09-14T02:23:54.761Z,26.54
2022-09-14T02:24:17.257Z,26.54
2022-09-14T02:24:40.481Z,26.59
2022-09-14T02:25:03.037Z,26.61
2022-09-14T02:25:25.986Z,26.60
2022-09-14T02:25:50.671Z,26.60
2022-09-14T02:26:17.110Z,26.61
2022-09-14T02:26:39.504Z,26.57
2022-09-14T02:27:03.368Z,26.50
2022-09-14T02:27:25.421Z,26.59
2022-09-14T02:27:48.127Z,26.59
2022-09-14T02:28:11.786Z,26.60
2022-09-14T02:28:34.682Z,26.61
2022-09-14T02:28:57.901Z,26.59
2022-09-14T02:29:23.380Z,26.60
2022-09-14T02:30:29.057Z,26.62
2022-09-14T02:31:03.521Z,26.60
2022-09-14T02:31:37.451Z,26.59
2022-09-14T02:32:16.744Z,26.58
2022-09-14T02:33:03.849Z,26.58
2022-09-14T02:33:38.399Z,26.55
2022-09-14T02:35:28.260Z,26.64
2022-09-14T02:36:03.783Z,26.64
2022-09-14T02:36:44.431Z,26.67
2022-09-14T02:37:24.850Z,26.64
2022-09-14T02:38:07.614Z,26.64
2022-09-14T02:38:44.946Z,26.64
2022-09-14T02:39:17.758Z,26.59
2022-09-14T02:39:48.260Z,26.63
2022-09-14T02:40:27.644Z,26.61
2022-09-14T02:40:57.630Z,26.65
2022-09-14T02:41:34.924Z,26.49
2022-09-14T02:42:14.516Z,26.64
2022-09-14T02:42:49.973Z,26.58
2022-09-14T02:43:34.460Z,26.65
2022-09-14T02:44:07.078Z,26.68
2022-09-14T02:44:42.954Z,26.58
2022-09-14T02:45:19.853Z,26.65
2022-09-14T02:45:59.065Z,26.69
2022-09-14T02:46:29.416Z,26.68
2022-09-14T02:46:58.924Z,26.68
2022-09-14T02:47:39.490Z,26.65
2022-09-14T02:48:14.496Z,26.66
2022-09-14T02:48:43.502Z,26.70
2022-09-14T02:49:14.260Z,26.67
2022-09-14T02:49:49.579Z,26.58
2022-09-14T02:50:27.373Z,26.55
2022-09-14T02:51:10.200Z,26.71
2022-09-14T02:51:40.626Z,26.68
2022-09-14T02:52:18.196Z,26.63
2022-09-14T02:52:53.755Z,26.65
2022-09-14T02:53:21.904Z,26.64
2022-09-14T02:53:53.841Z,26.55
2022-09-14T02:54:31.018Z,26.60
2022-09-14T02:55:00.302Z,26.60
2022-09-14T02:55:36.568Z,26.48
2022-09-14T02:56:10.038Z,26.59
2022-09-14T02:56:38.536Z,26.47
2022-09-14T02:57:05.742Z,26.58
2022-09-14T02:58:02.394Z,26.59
2022-09-14T02:58:42.577Z,26.60
2022-09-14T02:59:12.057Z,26.51
2022-09-14T02:59:41.653Z,26.60
2022-09-14T03:00:11.120Z,26.55
2022-09-14T03:00:36.093Z,26.50
2022-09-14T03:00:59.140Z,26.43
2022-09-14T03:01:22.856Z,26.55
2022-09-14T03:01:44.655Z,26.60
2022-09-14T03:02:06.429Z,26.58
2022-09-14T03:02:30.301Z,26.55
2022-09-14T03:02:52.141Z,26.60
2022-09-14T03:03:15.072Z,26.36
2022-09-14T03:03:37.288Z,26.52
2022-09-14T03:03:58.926Z,26.58
2022-09-14T03:04:21.509Z,26.59
2022-09-14T03:04:45.323Z,26.59
2022-09-14T03:05:07.469Z,26.59
2022-09-14T03:05:29.303Z,26.60
2022-09-14T03:05:52.098Z,26.40
2022-09-14T03:06:14.514Z,26.56
2022-09-14T03:06:36.528Z,26.39
2022-09-14T03:06:58.447Z,26.49
2022-09-14T03:07:21.255Z,26.41
2022-09-14T03:07:43.032Z,26.54
2022-09-14T03:08:05.773Z,26.49
2022-09-14T03:08:28.836Z,26.37
2022-09-14T03:08:50.486Z,26.51
2022-09-14T03:09:13.153Z,26.50
2022-09-14T03:09:36.562Z,26.57
2022-09-14T03:09:58.185Z,26.57
2022-09-14T03:10:19.858Z,26.33
2022-09-14T03:10:44.028Z,26.58
2022-09-14T03:11:06.061Z,26.41
2022-09-14T03:11:27.780Z,26.44
2022-09-14T03:11:49.374Z,26.60
2022-09-14T03:12:11.492Z,26.55
2022-09-14T03:12:34.065Z,26.61
2022-09-14T03:12:56.154Z,26.25
2022-09-14T03:13:18.181Z,26.51
2022-09-14T03:13:42.281Z,26.60
2022-09-14T03:14:03.923Z,26.41
2022-09-14T03:14:26.460Z,26.62
2022-09-14T03:14:48.224Z,26.45
2022-09-14T03:15:10.888Z,26.61
2022-09-14T03:15:32.837Z,26.62
2022-09-14T03:15:55.444Z,26.37
2022-09-14T03:16:19.598Z,26.60
2022-09-14T03:16:41.322Z,26.58
2022-09-14T03:17:02.990Z,26.58
2022-09-14T03:17:25.569Z,26.56
2022-09-14T03:17:48.285Z,26.58
2022-09-14T03:18:14.052Z,26.37
2022-09-14T03:18:37.176Z,26.38
2022-09-14T03:18:59.864Z,26.39
2022-09-14T03:19:22.089Z,26.58
2022-09-14T03:19:43.672Z,26.42
2022-09-14T03:20:06.049Z,26.38
2022-09-14T03:20:32.164Z,26.59
2022-09-14T03:20:55.578Z,26.59
2022-09-14T03:21:18.037Z,26.61
2022-09-14T03:21:40.210Z,26.60
2022-09-14T03:22:02.775Z,26.61
2022-09-14T03:22:24.365Z,26.61
2022-09-14T03:22:46.015Z,26.61
2022-09-14T03:23:09.031Z,26.62
2022-09-14T03:23:30.796Z,26.63
2022-09-14T03:23:55.052Z,26.62
2022-09-14T03:24:16.624Z,26.64
2022-09-14T03:24:38.440Z,26.67
2022-09-14T03:25:00.031Z,26.65
2022-09-14T03:25:22.981Z,26.66
2022-09-14T03:25:46.075Z,26.65
2022-09-14T03:26:09.234Z,26.69
2022-09-14T03:26:30.995Z,26.64
2022-09-14T03:26:52.553Z,26.59
2022-09-14T03:27:15.282Z,26.69
2022-09-14T03:27:36.867Z,26.68
2022-09-14T03:27:59.927Z,26.71
2022-09-14T03:28:21.596Z,26.72
2022-09-14T03:28:45.525Z,26.68
2022-09-14T03:29:08.252Z,26.68
2022-09-14T03:29:29.825Z,26.71
2022-09-14T03:29:51.377Z,26.71
2022-09-14T03:30:13.677Z,26.72
2022-09-14T03:30:36.929Z,26.73
2022-09-14T03:31:00.629Z,26.74
2022-09-14T03:31:27.493Z,26.72
2022-09-14T03:31:52.786Z,26.68
2022-09-14T03:32:31.313Z,26.67
2022-09-14T03:32:55.276Z,26.69
2022-09-14T03:33:20.081Z,26.69
2022-09-14T03:33:44.297Z,26.69
2022-09-14T03:34:10.393Z,26.69
2022-09-14T03:34:44.383Z,26.69
2022-09-14T03:35:09.113Z,26.68
2022-09-14T03:35:32.628Z,26.67
2022-09-14T03:36:04.965Z,26.67
2022-09-14T03:36:43.793Z,26.65
2022-09-14T03:37:08.417Z,26.62
2022-09-14T03:37:34.682Z,26.67
2022-09-14T03:38:04.459Z,26.68
2022-09-14T03:38:30.564Z,26.65
2022-09-14T03:38:55.276Z,26.63
2022-09-14T03:39:23.260Z,26.62
2022-09-14T03:39:47.140Z,26.58
2022-09-14T03:40:12.463Z,26.61
2022-09-14T03:40:35.963Z,26.60
2022-09-14T03:41:03.925Z,26.58
2022-09-14T03:41:35.887Z,26.59
2022-09-14T03:41:57.511Z,26.60
2022-09-14T03:42:19.295Z,26.61
2022-09-14T03:42:42.276Z,26.57
2022-09-14T03:43:04.840Z,26.52
2022-09-14T03:43:27.038Z,26.58
2022-09-14T03:43:50.648Z,26.53
2022-09-14T03:44:12.272Z,26.58
2022-09-14T03:44:34.845Z,26.54
2022-09-14T03:44:56.560Z,26.50
2022-09-14T03:45:19.795Z,26.49
2022-09-14T03:45:43.790Z,26.49
2022-09-14T03:46:07.829Z,26.48
2022-09-14T03:46:29.509Z,26.45
2022-09-14T03:46:51.147Z,26.49
2022-09-14T03:47:12.822Z,26.48
2022-09-14T03:47:35.409Z,26.35
2022-09-14T03:47:56.992Z,26.46
2022-09-14T03:48:18.549Z,26.45
2022-09-14T03:48:40.870Z,26.44
2022-09-14T03:49:03.474Z,26.43
2022-09-14T03:49:25.098Z,26.42
2022-09-14T03:49:46.672Z,26.23
2022-09-14T03:50:09.669Z,26.40
2022-09-14T03:50:31.658Z,26.41
2022-09-14T03:50:54.168Z,26.37
2022-09-14T03:51:16.497Z,26.27
2022-09-14T03:51:38.102Z,26.41
2022-09-14T03:52:00.033Z,26.41
2022-09-14T03:52:27.052Z,26.42
2022-09-14T03:52:49.647Z,26.43
2022-09-14T03:53:12.730Z,26.42
2022-09-14T03:53:40.762Z,26.44
2022-09-14T03:54:12.422Z,26.45
2022-09-14T03:54:38.967Z,26.44
2022-09-14T03:55:10.808Z,26.42
2022-09-14T03:55:36.229Z,26.39
2022-09-14T03:56:00.798Z,26.39
2022-09-14T03:56:26.278Z,26.39
2022-09-14T03:56:48.686Z,26.28
2022-09-14T03:57:23.093Z,26.35
2022-09-14T03:57:56.626Z,26.35
2022-09-14T03:58:19.621Z,26.36
2022-09-14T03:58:48.747Z,26.35
2022-09-14T03:59:20.550Z,26.35
2022-09-14T03:59:52.860Z,26.36
2022-09-14T04:00:22.641Z,26.34
2022-09-14T04:00:52.636Z,26.26
2022-09-14T04:01:24.666Z,26.30
2022-09-14T04:01:53.209Z,26.33
2022-09-14T04:02:27.506Z,26.32
2022-09-14T04:02:50.115Z,26.30
2022-09-14T04:03:13.842Z,26.31
2022-09-14T04:03:35.989Z,26.32
2022-09-14T04:03:58.900Z,26.33
2022-09-14T04:04:20.604Z,26.34
2022-09-14T04:04:43.111Z,26.36
2022-09-14T04:05:05.407Z,26.38
2022-09-14T04:05:26.952Z,26.39
2022-09-14T04:05:54.931Z,26.38
2022-09-14T04:06:18.892Z,26.37
2022-09-14T04:06:40.433Z,26.34
2022-09-14T04:07:01.972Z,26.40
2022-09-14T04:07:23.557Z,26.34
2022-09-14T04:07:45.149Z,26.36
2022-09-14T04:08:07.720Z,26.45
2022-09-14T04:08:29.299Z,26.30
2022-09-14T04:08:50.971Z,26.39
2022-09-14T04:09:12.842Z,26.48
2022-09-14T04:09:35.505Z,26.49
2022-09-14T04:09:57.072Z,26.51
2022-09-14T04:10:18.932Z,26.51
2022-09-14T04:10:40.802Z,26.52
2022-09-14T04:11:07.836Z,26.52
2022-09-14T04:11:31.503Z,26.49
2022-09-14T04:11:53.074Z,26.54
2022-09-14T04:12:14.710Z,26.53
2022-09-14T04:12:37.633Z,26.52
2022-09-14T04:13:00.034Z,26.42
2022-09-14T04:13:22.612Z,26.34
2022-09-14T04:13:45.382Z,26.51
2022-09-14T04:14:08.349Z,26.28
2022-09-14T04:14:31.592Z,26.33
2022-09-14T04:14:54.401Z,26.50
2022-09-14T04:15:16.312Z,26.23
2022-09-14T04:15:37.941Z,26.51
2022-09-14T04:16:00.401Z,26.51
2022-09-14T04:16:22.494Z,26.35
2022-09-14T04:16:45.871Z,26.53
2022-09-14T04:17:07.470Z,26.56
2022-09-14T04:17:29.541Z,26.59
2022-09-14T04:17:51.523Z,26.58
2022-09-14T04:18:14.461Z,26.41
2022-09-14T04:18:36.292Z,26.53
2022-09-14T04:18:58.252Z,26.53
2022-09-14T04:19:20.101Z,26.39
2022-09-14T04:19:43.140Z,26.60
2022-09-14T04:20:05.460Z,26.61
2022-09-14T04:20:27.360Z,26.61
2022-09-14T04:20:54.723Z,26.61
2022-09-14T04:21:19.569Z,26.62
2022-09-14T04:21:41.126Z,26.63
2022-09-14T04:22:03.025Z,26.63
2022-09-14T04:22:24.710Z,26.64
2022-09-14T04:22:46.599Z,26.65
2022-09-14T04:23:09.613Z,26.67
2022-09-14T04:24:03.391Z,26.64
2022-09-14T04:24:22.040Z,26.65
2022-09-14T04:24:51.105Z,26.62
2022-09-14T04:25:17.652Z,26.62
2022-09-14T04:25:46.358Z,26.64
2022-09-14T04:26:15.504Z,26.67
2022-09-14T04:26:41.335Z,26.60
2022-09-14T04:27:21.300Z,26.68
2022-09-14T04:28:16.658Z,26.68
2022-09-14T04:28:40.902Z,26.65
2022-09-14T04:29:13.001Z,26.65
2022-09-14T04:29:43.783Z,26.49
2022-09-14T04:31:36.716Z,26.60
2022-09-14T04:32:10.124Z,26.57
2022-09-14T04:32:34.546Z,26.60
2022-09-14T04:33:08.628Z,26.61
2022-09-14T04:33:47.981Z,26.59
2022-09-14T04:34:12.978Z,26.63
2022-09-14T04:34:36.625Z,26.67
2022-09-14T04:34:58.242Z,26.68
2022-09-14T04:35:19.795Z,26.57
2022-09-14T04:35:41.508Z,26.61
2022-09-14T04:36:06.848Z,26.46
2022-09-14T04:36:31.922Z,26.68
2022-09-14T04:36:53.502Z,26.68
2022-09-14T04:37:15.202Z,26.68
2022-09-14T04:37:36.934Z,26.70
2022-09-14T04:37:58.665Z,26.60
2022-09-14T04:38:21.424Z,26.64
2022-09-14T04:38:43.937Z,26.64
2022-09-14T04:39:08.494Z,26.65
2022-09-14T04:39:31.093Z,26.47
2022-09-14T04:39:52.828Z,26.68
2022-09-14T04:40:15.101Z,26.45
2022-09-14T04:40:40.886Z,26.47
2022-09-14T04:41:08.620Z,26.59
2022-09-14T04:41:32.851Z,26.67
2022-09-14T04:41:54.433Z,26.64
2022-09-14T04:42:19.345Z,26.40
2022-09-14T04:42:41.474Z,26.65
2022-09-14T04:43:03.947Z,26.20
2022-09-14T04:43:29.824Z,26.59
2022-09-14T04:43:54.062Z,26.61
2022-09-14T04:44:17.196Z,26.63
2022-09-14T04:44:48.341Z,26.65
2022-09-14T04:45:21.357Z,26.67
2022-09-14T04:45:47.653Z,26.67
2022-09-14T04:46:16.402Z,26.69
2022-09-14T04:47:32.032Z,26.66
2022-09-14T04:48:01.434Z,26.69
2022-09-14T04:48:37.890Z,26.67
2022-09-14T04:49:03.335Z,26.68
2022-09-14T04:49:36.624Z,26.67
2022-09-14T04:50:01.391Z,26.59
2022-09-14T04:50:50.843Z,26.60
2022-09-14T04:51:21.971Z,26.61
2022-09-14T04:51:55.692Z,26.58
2022-09-14T04:52:21.974Z,26.56
2022-09-14T04:52:48.568Z,26.51
2022-09-14T04:53:13.390Z,26.51
2022-09-14T04:53:42.816Z,26.49
2022-09-14T04:54:09.544Z,26.46
2022-09-14T04:54:35.656Z,26.49
2022-09-14T04:54:58.473Z,26.50
2022-09-14T04:55:20.844Z,26.50
2022-09-14T04:55:43.632Z,26.42
2022-09-14T04:56:07.596Z,26.50
2022-09-14T04:56:32.017Z,26.49
2022-09-14T04:56:54.531Z,26.45
2022-09-14T04:57:16.089Z,26.40
2022-09-14T04:57:37.661Z,26.43
2022-09-14T04:57:59.201Z,26.48
2022-09-14T04:58:20.783Z,26.50
2022-09-14T04:58:48.253Z,26.52
2022-09-14T04:59:12.949Z,26.51
2022-09-14T04:59:34.978Z,26.51
2022-09-14T04:59:58.851Z,26.52
2022-09-14T05:00:20.820Z,26.50
2022-09-14T05:00:42.413Z,26.51
2022-09-14T05:01:05.324Z,26.52
2022-09-14T05:01:32.126Z,26.53
2022-09-14T05:01:53.934Z,26.53
2022-09-14T05:02:15.775Z,26.53
2022-09-14T05:02:40.827Z,26.54
2022-09-14T05:03:04.536Z,26.53
2022-09-14T05:03:26.196Z,26.54
2022-09-14T05:03:48.156Z,26.57
2022-09-14T05:04:11.317Z,26.58
2022-09-14T05:04:33.868Z,26.60
2022-09-14T05:04:55.414Z,26.57
2022-09-14T05:05:16.996Z,26.60
2022-09-14T05:05:40.927Z,26.57
2022-09-14T05:06:07.135Z,26.61
2022-09-14T05:06:30.277Z,26.62
2022-09-14T05:06:51.851Z,26.61
2022-09-14T05:07:14.357Z,26.60
2022-09-14T05:07:35.929Z,26.61
2022-09-14T05:07:57.754Z,26.64
2022-09-14T05:08:19.384Z,26.63
2022-09-14T05:08:41.862Z,26.62
2022-09-14T05:09:06.996Z,26.63
2022-09-14T05:09:28.605Z,26.47
2022-09-14T05:09:50.208Z,26.63
2022-09-14T05:10:12.017Z,26.63
2022-09-14T05:10:34.597Z,26.63
2022-09-14T05:10:56.935Z,26.54
2022-09-14T05:11:19.948Z,26.63
2022-09-14T05:11:42.915Z,26.63
2022-09-14T05:12:04.942Z,26.64
2022-09-14T05:12:27.733Z,26.64
2022-09-14T05:12:49.315Z,26.64
2022-09-14T05:13:11.250Z,26.64
2022-09-14T05:13:40.051Z,26.64
2022-09-14T05:14:03.245Z,26.64
2022-09-14T05:14:25.053Z,26.44
2022-09-14T05:14:47.710Z,26.65
2022-09-14T05:15:11.320Z,26.57
2022-09-14T05:15:32.919Z,26.63
2022-09-14T05:15:55.060Z,26.63
2022-09-14T05:16:22.159Z,26.62
2022-09-14T05:16:45.514Z,26.62
2022-09-14T05:17:07.111Z,26.60
2022-09-14T05:17:28.681Z,26.60
2022-09-14T05:17:50.268Z,26.61
2022-09-14T05:18:11.846Z,26.60
2022-09-14T05:18:33.923Z,26.54
2022-09-14T05:19:01.775Z,26.46
2022-09-14T05:19:24.654Z,26.54
2022-09-14T05:19:48.814Z,26.52
2022-09-14T05:20:10.377Z,26.49
2022-09-14T05:20:32.932Z,26.47
2022-09-14T05:20:54.512Z,26.47
2022-09-14T05:21:18.165Z,26.40
2022-09-14T05:21:39.822Z,26.45
2022-09-14T05:22:02.368Z,26.44
2022-09-14T05:22:23.941Z,26.42
2022-09-14T05:22:49.657Z,26.43
2022-09-14T05:23:11.436Z,26.40
2022-09-14T05:23:35.488Z,26.44
2022-09-14T05:23:58.986Z,26.45
2022-09-14T05:24:20.578Z,26.42
2022-09-14T05:24:43.117Z,26.41
2022-09-14T05:25:05.257Z,26.42
2022-09-14T05:25:27.426Z,26.37
2022-09-14T05:25:53.045Z,26.43
2022-09-14T05:26:15.672Z,26.41
2022-09-14T05:26:37.328Z,26.33
2022-09-14T05:27:01.579Z,26.31
2022-09-14T05:27:24.876Z,26.39
2022-09-14T05:27:46.561Z,26.33
2022-09-14T05:28:08.994Z,26.39
2022-09-14T05:28:31.159Z,26.38
2022-09-14T05:28:54.249Z,26.33
2022-09-14T05:29:18.702Z,26.34
2022-09-14T05:29:40.326Z,26.31
2022-09-14T05:30:02.003Z,26.28
2022-09-14T05:30:24.942Z,26.39
2022-09-14T05:30:47.539Z,26.39
2022-09-14T05:31:12.933Z,26.41
2022-09-14T05:31:34.821Z,26.32
2022-09-14T05:31:57.414Z,26.44
2022-09-14T05:32:19.002Z,26.34
2022-09-14T05:32:40.617Z,26.35